sensor_id;sensor_type;location;lat;lon;timestamp;P1;durP1;ratioP1;P2;durP2;ratioP2
79403;SDS011;68858;48.642;9.142;2023-05-10T00:00:09;2.60;;;2.40;;
79403;SDS011;68858;48.642;9.142;2023-05-10T00:02:35;3.13;;;2.70;;
79403;SDS011;68858;48.642;9.142;2023-05-10T00:05:01;3.10;;;2.90;;
79403;SDS011;68858;48.642;9.142;2023-05-10T00:07:26;2.70;;;2.50;;
79403;SDS011;68858;48.642;9.142;2023-05-10T00:09:52;2.67;;;2.47;;
79403;SDS011;68858;48.642;9.142;2023-05-10T00:12:17;3.00;;;2.70;;
79403;SDS011;68858;48.642;9.142;2023-05-10T00:14:42;2.63;;;2.43;;
79403;SDS011;68858;48.642;9.142;2023-05-10T00:17:08;2.57;;;2.20;;
79403;SDS011;68858;48.642;9.142;2023-05-10T00:19:33;2.47;;;2.00;;
79403;SDS011;68858;48.642;9.142;2023-05-10T00:21:58;2.53;;;2.33;;
79403;SDS011;68858;48.642;9.142;2023-05-10T00:24:25;2.90;;;2.40;;
79403;SDS011;68858;48.642;9.142;2023-05-10T00:26:50;2.00;;;1.90;;
79403;SDS011;68858;48.642;9.142;2023-05-10T00:29:15;3.07;;;1.87;;
79403;SDS011;68858;48.642;9.142;2023-05-10T00:31:41;2.17;;;1.23;;
79403;SDS011;68858;48.642;9.142;2023-05-10T00:34:06;1.23;;;1.13;;
79403;SDS011;68858;48.642;9.142;2023-05-10T00:36:31;2.73;;;1.40;;
79403;SDS011;68858;48.642;9.142;2023-05-10T00:38:57;1.90;;;1.17;;
79403;SDS011;68858;48.642;9.142;2023-05-10T00:41:22;1.63;;;1.10;;
79403;SDS011;68858;48.642;9.142;2023-05-10T00:43:47;1.03;;;0.70;;
79403;SDS011;68858;48.642;9.142;2023-05-10T00:46:14;1.83;;;0.90;;
79403;SDS011;68858;48.642;9.142;2023-05-10T00:48:40;1.13;;;1.00;;
79403;SDS011;68858;48.642;9.142;2023-05-10T00:51:06;1.90;;;0.90;;
79403;SDS011;68858;48.642;9.142;2023-05-10T00:53:31;2.20;;;1.10;;
79403;SDS011;68858;48.642;9.142;2023-05-10T00:55:57;1.37;;;0.80;;
79403;SDS011;68858;48.642;9.142;2023-05-10T00:58:25;1.17;;;0.80;;
79403;SDS011;68858;48.642;9.142;2023-05-10T01:00:53;1.10;;;1.00;;
79403;SDS011;68858;48.642;9.142;2023-05-10T01:03:19;1.07;;;1.03;;
79403;SDS011;68858;48.642;9.142;2023-05-10T01:05:46;5.73;;;1.37;;
79403;SDS011;68858;48.642;9.142;2023-05-10T01:08:11;2.50;;;1.00;;
79403;SDS011;68858;48.642;9.142;2023-05-10T01:10:36;1.70;;;1.00;;
79403;SDS011;68858;48.642;9.142;2023-05-10T01:13:02;1.20;;;0.83;;
79403;SDS011;68858;48.642;9.142;2023-05-10T01:15:28;3.47;;;0.93;;
79403;SDS011;68858;48.642;9.142;2023-05-10T01:17:53;0.80;;;0.67;;
79403;SDS011;68858;48.642;9.142;2023-05-10T01:20:19;2.00;;;0.90;;
79403;SDS011;68858;48.642;9.142;2023-05-10T01:23:03;1.60;;;0.70;;
79403;SDS011;68858;48.642;9.142;2023-05-10T01:28:23;1.53;;;0.80;;
79403;SDS011;68858;48.642;9.142;2023-05-10T01:34:01;0.50;;;0.50;;
79403;SDS011;68858;48.642;9.142;2023-05-10T01:36:31;0.90;;;0.67;;
79403;SDS011;68858;48.642;9.142;2023-05-10T01:41:42;0.90;;;0.70;;
79403;SDS011;68858;48.642;9.142;2023-05-10T01:44:18;1.47;;;0.70;;
79403;SDS011;68858;48.642;9.142;2023-05-10T01:46:52;0.67;;;0.67;;
79403;SDS011;68858;48.642;9.142;2023-05-10T01:49:23;2.10;;;0.70;;
79403;SDS011;68858;48.642;9.142;2023-05-10T01:51:51;0.63;;;0.63;;
79403;SDS011;68858;48.642;9.142;2023-05-10T01:54:20;1.10;;;0.70;;
79403;SDS011;68858;48.642;9.142;2023-05-10T01:56:47;0.63;;;0.53;;
79403;SDS011;68858;48.642;9.142;2023-05-10T01:59:29;1.90;;;0.70;;
79403;SDS011;68858;48.642;9.142;2023-05-10T02:01:57;2.10;;;0.60;;
79403;SDS011;68858;48.642;9.142;2023-05-10T02:04:23;0.50;;;0.50;;
79403;SDS011;68858;48.642;9.142;2023-05-10T02:06:50;1.83;;;0.50;;
79403;SDS011;68858;48.642;9.142;2023-05-10T02:09:16;0.83;;;0.50;;
79403;SDS011;68858;48.642;9.142;2023-05-10T02:11:43;0.40;;;0.40;;
79403;SDS011;68858;48.642;9.142;2023-05-10T02:14:09;0.40;;;0.40;;
79403;SDS011;68858;48.642;9.142;2023-05-10T02:16:35;0.93;;;0.50;;
79403;SDS011;68858;48.642;9.142;2023-05-10T02:19:02;1.07;;;0.63;;
79403;SDS011;68858;48.642;9.142;2023-05-10T02:21:27;1.03;;;0.60;;
79403;SDS011;68858;48.642;9.142;2023-05-10T02:23:53;1.00;;;0.60;;
79403;SDS011;68858;48.642;9.142;2023-05-10T02:26:19;0.80;;;0.80;;
79403;SDS011;68858;48.642;9.142;2023-05-10T02:28:45;0.83;;;0.80;;
79403;SDS011;68858;48.642;9.142;2023-05-10T02:31:11;2.20;;;0.97;;
79403;SDS011;68858;48.642;9.142;2023-05-10T02:33:38;5.03;;;2.53;;
79403;SDS011;68858;48.642;9.142;2023-05-10T02:36:05;2.67;;;2.00;;
79403;SDS011;68858;48.642;9.142;2023-05-10T02:38:33;2.23;;;1.63;;
79403;SDS011;68858;48.642;9.142;2023-05-10T02:41:00;2.80;;;2.10;;
79403;SDS011;68858;48.642;9.142;2023-05-10T02:43:26;1.73;;;1.17;;
79403;SDS011;68858;48.642;9.142;2023-05-10T02:45:53;2.87;;;1.00;;
79403;SDS011;68858;48.642;9.142;2023-05-10T02:48:18;2.57;;;1.10;;
79403;SDS011;68858;48.642;9.142;2023-05-10T02:50:44;0.87;;;0.80;;
79403;SDS011;68858;48.642;9.142;2023-05-10T02:53:10;1.20;;;0.90;;
79403;SDS011;68858;48.642;9.142;2023-05-10T02:55:41;1.07;;;0.90;;
79403;SDS011;68858;48.642;9.142;2023-05-10T02:58:11;1.33;;;0.90;;
79403;SDS011;68858;48.642;9.142;2023-05-10T03:00:36;1.07;;;1.07;;
79403;SDS011;68858;48.642;9.142;2023-05-10T03:03:02;1.73;;;0.90;;
79403;SDS011;68858;48.642;9.142;2023-05-10T03:05:27;2.60;;;1.10;;
79403;SDS011;68858;48.642;9.142;2023-05-10T03:07:53;1.23;;;0.87;;
79403;SDS011;68858;48.642;9.142;2023-05-10T03:10:18;2.53;;;0.87;;
79403;SDS011;68858;48.642;9.142;2023-05-10T03:18:21;1.40;;;1.00;;
79403;SDS011;68858;48.642;9.142;2023-05-10T03:20:48;1.23;;;1.03;;
79403;SDS011;68858;48.642;9.142;2023-05-10T03:25:42;1.20;;;0.90;;
79403;SDS011;68858;48.642;9.142;2023-05-10T03:28:08;3.17;;;1.50;;
79403;SDS011;68858;48.642;9.142;2023-05-10T03:30:34;1.60;;;1.00;;
79403;SDS011;68858;48.642;9.142;2023-05-10T03:33:04;2.70;;;1.10;;
79403;SDS011;68858;48.642;9.142;2023-05-10T03:35:32;1.07;;;0.97;;
79403;SDS011;68858;48.642;9.142;2023-05-10T03:37:58;1.70;;;1.33;;
79403;SDS011;68858;48.642;9.142;2023-05-10T03:40:23;2.47;;;1.37;;
79403;SDS011;68858;48.642;9.142;2023-05-10T03:42:49;1.07;;;1.03;;
79403;SDS011;68858;48.642;9.142;2023-05-10T03:45:14;1.70;;;1.20;;
79403;SDS011;68858;48.642;9.142;2023-05-10T03:47:40;1.20;;;1.10;;
79403;SDS011;68858;48.642;9.142;2023-05-10T03:50:06;1.70;;;1.40;;
79403;SDS011;68858;48.642;9.142;2023-05-10T03:52:32;1.20;;;1.10;;
79403;SDS011;68858;48.642;9.142;2023-05-10T03:54:57;1.23;;;1.13;;
79403;SDS011;68858;48.642;9.142;2023-05-10T03:57:24;1.30;;;1.20;;
79403;SDS011;68858;48.642;9.142;2023-05-10T03:59:49;1.40;;;1.30;;
79403;SDS011;68858;48.642;9.142;2023-05-10T04:02:15;1.50;;;1.40;;
79403;SDS011;68858;48.642;9.142;2023-05-10T04:04:40;2.53;;;1.40;;
79403;SDS011;68858;48.642;9.142;2023-05-10T04:07:06;1.70;;;1.30;;
79403;SDS011;68858;48.642;9.142;2023-05-10T04:09:31;2.13;;;1.43;;
79403;SDS011;68858;48.642;9.142;2023-05-10T04:11:58;1.90;;;1.70;;
79403;SDS011;68858;48.642;9.142;2023-05-10T04:14:23;3.73;;;1.50;;
79403;SDS011;68858;48.642;9.142;2023-05-10T04:16:49;2.37;;;1.50;;
79403;SDS011;68858;48.642;9.142;2023-05-10T04:19:15;1.60;;;1.50;;
79403;SDS011;68858;48.642;9.142;2023-05-10T04:21:40;1.40;;;1.20;;
79403;SDS011;68858;48.642;9.142;2023-05-10T04:24:05;2.20;;;1.50;;
79403;SDS011;68858;48.642;9.142;2023-05-10T04:26:31;2.03;;;1.83;;
79403;SDS011;68858;48.642;9.142;2023-05-10T04:28:56;3.73;;;1.80;;
79403;SDS011;68858;48.642;9.142;2023-05-10T04:31:21;2.63;;;1.63;;
79403;SDS011;68858;48.642;9.142;2023-05-10T04:33:47;3.73;;;1.90;;
79403;SDS011;68858;48.642;9.142;2023-05-10T04:36:12;1.87;;;1.70;;
79403;SDS011;68858;48.642;9.142;2023-05-10T04:38:38;2.00;;;1.80;;
79403;SDS011;68858;48.642;9.142;2023-05-10T04:41:03;5.40;;;2.03;;
79403;SDS011;68858;48.642;9.142;2023-05-10T04:43:30;2.23;;;1.80;;
79403;SDS011;68858;48.642;9.142;2023-05-10T04:45:58;3.27;;;2.13;;
79403;SDS011;68858;48.642;9.142;2023-05-10T04:48:23;1.80;;;1.33;;
79403;SDS011;68858;48.642;9.142;2023-05-10T04:50:49;1.90;;;1.80;;
79403;SDS011;68858;48.642;9.142;2023-05-10T04:53:14;1.70;;;1.60;;
79403;SDS011;68858;48.642;9.142;2023-05-10T04:55:39;1.63;;;1.53;;
79403;SDS011;68858;48.642;9.142;2023-05-10T04:58:05;3.40;;;1.83;;
79403;SDS011;68858;48.642;9.142;2023-05-10T05:00:30;2.60;;;1.93;;
79403;SDS011;68858;48.642;9.142;2023-05-10T05:02:55;3.43;;;2.27;;
79403;SDS011;68858;48.642;9.142;2023-05-10T05:05:20;2.77;;;2.27;;
79403;SDS011;68858;48.642;9.142;2023-05-10T05:07:46;2.77;;;2.57;;
79403;SDS011;68858;48.642;9.142;2023-05-10T05:10:11;2.23;;;1.83;;
79403;SDS011;68858;48.642;9.142;2023-05-10T05:12:37;2.60;;;2.17;;
79403;SDS011;68858;48.642;9.142;2023-05-10T05:15:02;2.10;;;1.90;;
79403;SDS011;68858;48.642;9.142;2023-05-10T05:17:29;2.63;;;2.00;;
79403;SDS011;68858;48.642;9.142;2023-05-10T05:19:55;2.17;;;1.50;;
79403;SDS011;68858;48.642;9.142;2023-05-10T05:22:20;1.77;;;1.60;;
79403;SDS011;68858;48.642;9.142;2023-05-10T05:24:52;1.73;;;1.63;;
79403;SDS011;68858;48.642;9.142;2023-05-10T05:27:17;1.87;;;1.60;;
79403;SDS011;68858;48.642;9.142;2023-05-10T05:29:43;2.80;;;1.53;;
79403;SDS011;68858;48.642;9.142;2023-05-10T05:32:08;2.77;;;2.57;;
79403;SDS011;68858;48.642;9.142;2023-05-10T05:34:34;2.20;;;2.00;;
79403;SDS011;68858;48.642;9.142;2023-05-10T05:36:59;3.03;;;1.50;;
79403;SDS011;68858;48.642;9.142;2023-05-10T05:39:24;1.73;;;1.63;;
79403;SDS011;68858;48.642;9.142;2023-05-10T05:41:50;2.17;;;1.70;;
79403;SDS011;68858;48.642;9.142;2023-05-10T05:44:15;1.90;;;1.80;;
79403;SDS011;68858;48.642;9.142;2023-05-10T05:46:40;2.27;;;1.50;;
79403;SDS011;68858;48.642;9.142;2023-05-10T05:49:05;1.73;;;1.50;;
79403;SDS011;68858;48.642;9.142;2023-05-10T05:51:31;2.77;;;1.70;;
79403;SDS011;68858;48.642;9.142;2023-05-10T05:53:56;2.70;;;1.90;;
79403;SDS011;68858;48.642;9.142;2023-05-10T05:56:21;3.27;;;2.10;;
79403;SDS011;68858;48.642;9.142;2023-05-10T05:58:52;3.40;;;2.60;;
79403;SDS011;68858;48.642;9.142;2023-05-10T06:01:17;2.30;;;1.93;;
79403;SDS011;68858;48.642;9.142;2023-05-10T06:03:43;2.40;;;1.67;;
79403;SDS011;68858;48.642;9.142;2023-05-10T06:06:08;1.70;;;1.60;;
79403;SDS011;68858;48.642;9.142;2023-05-10T06:08:33;1.60;;;1.50;;
79403;SDS011;68858;48.642;9.142;2023-05-10T06:10:59;4.20;;;2.13;;
79403;SDS011;68858;48.642;9.142;2023-05-10T06:13:25;1.90;;;1.43;;
79403;SDS011;68858;48.642;9.142;2023-05-10T06:15:56;3.40;;;1.77;;
79403;SDS011;68858;48.642;9.142;2023-05-10T06:18:22;2.20;;;1.83;;
79403;SDS011;68858;48.642;9.142;2023-05-10T06:20:48;2.10;;;1.90;;
79403;SDS011;68858;48.642;9.142;2023-05-10T06:23:14;2.37;;;2.17;;
79403;SDS011;68858;48.642;9.142;2023-05-10T06:25:40;3.30;;;2.27;;
79403;SDS011;68858;48.642;9.142;2023-05-10T06:28:05;3.43;;;2.63;;
79403;SDS011;68858;48.642;9.142;2023-05-10T06:30:30;3.13;;;2.50;;
79403;SDS011;68858;48.642;9.142;2023-05-10T06:32:56;3.27;;;2.40;;
79403;SDS011;68858;48.642;9.142;2023-05-10T06:35:21;2.70;;;1.70;;
79403;SDS011;68858;48.642;9.142;2023-05-10T06:37:47;2.53;;;1.70;;
79403;SDS011;68858;48.642;9.142;2023-05-10T06:40:12;2.23;;;2.03;;
79403;SDS011;68858;48.642;9.142;2023-05-10T06:42:38;2.37;;;1.73;;
79403;SDS011;68858;48.642;9.142;2023-05-10T06:45:03;2.03;;;1.83;;
79403;SDS011;68858;48.642;9.142;2023-05-10T06:47:30;2.37;;;1.60;;
79403;SDS011;68858;48.642;9.142;2023-05-10T06:49:55;1.90;;;1.80;;
79403;SDS011;68858;48.642;9.142;2023-05-10T06:52:20;1.87;;;1.77;;
79403;SDS011;68858;48.642;9.142;2023-05-10T06:54:46;2.83;;;1.53;;
79403;SDS011;68858;48.642;9.142;2023-05-10T06:57:12;1.83;;;1.60;;
79403;SDS011;68858;48.642;9.142;2023-05-10T06:59:37;3.07;;;1.50;;
79403;SDS011;68858;48.642;9.142;2023-05-10T07:02:02;1.77;;;1.67;;
79403;SDS011;68858;48.642;9.142;2023-05-10T07:04:28;1.90;;;1.67;;
79403;SDS011;68858;48.642;9.142;2023-05-10T07:06:53;1.87;;;1.70;;
79403;SDS011;68858;48.642;9.142;2023-05-10T07:09:19;1.77;;;1.67;;
79403;SDS011;68858;48.642;9.142;2023-05-10T07:11:44;1.60;;;1.50;;
79403;SDS011;68858;48.642;9.142;2023-05-10T07:14:09;2.23;;;1.47;;
79403;SDS011;68858;48.642;9.142;2023-05-10T07:16:35;2.47;;;1.40;;
79403;SDS011;68858;48.642;9.142;2023-05-10T07:19:01;3.00;;;1.47;;
79403;SDS011;68858;48.642;9.142;2023-05-10T07:21:27;2.70;;;1.37;;
79403;SDS011;68858;48.642;9.142;2023-05-10T07:23:53;1.30;;;1.20;;
79403;SDS011;68858;48.642;9.142;2023-05-10T07:26:19;1.33;;;1.20;;
79403;SDS011;68858;48.642;9.142;2023-05-10T07:28:44;2.30;;;1.10;;
79403;SDS011;68858;48.642;9.142;2023-05-10T07:31:10;2.00;;;1.20;;
79403;SDS011;68858;48.642;9.142;2023-05-10T07:33:35;1.33;;;1.10;;
79403;SDS011;68858;48.642;9.142;2023-05-10T07:36:00;1.67;;;1.20;;
79403;SDS011;68858;48.642;9.142;2023-05-10T07:38:26;1.47;;;1.17;;
79403;SDS011;68858;48.642;9.142;2023-05-10T07:40:51;1.30;;;1.20;;
79403;SDS011;68858;48.642;9.142;2023-05-10T07:43:16;2.30;;;1.00;;
79403;SDS011;68858;48.642;9.142;2023-05-10T07:45:42;1.30;;;1.20;;
79403;SDS011;68858;48.642;9.142;2023-05-10T07:48:07;1.43;;;1.13;;
79403;SDS011;68858;48.642;9.142;2023-05-10T07:50:32;1.30;;;1.10;;
79403;SDS011;68858;48.642;9.142;2023-05-10T07:52:58;2.33;;;1.40;;
79403;SDS011;68858;48.642;9.142;2023-05-10T07:55:23;2.10;;;1.50;;
79403;SDS011;68858;48.642;9.142;2023-05-10T07:57:49;2.73;;;1.33;;
79403;SDS011;68858;48.642;9.142;2023-05-10T08:00:16;1.40;;;1.00;;
79403;SDS011;68858;48.642;9.142;2023-05-10T08:02:43;1.10;;;1.00;;
79403;SDS011;68858;48.642;9.142;2023-05-10T08:05:08;1.83;;;1.10;;
79403;SDS011;68858;48.642;9.142;2023-05-10T08:07:33;1.47;;;1.07;;
79403;SDS011;68858;48.642;9.142;2023-05-10T08:09:59;0.70;;;0.70;;
79403;SDS011;68858;48.642;9.142;2023-05-10T08:12:25;1.93;;;1.33;;
79403;SDS011;68858;48.642;9.142;2023-05-10T08:14:51;2.40;;;0.97;;
79403;SDS011;68858;48.642;9.142;2023-05-10T08:17:16;1.80;;;1.00;;
79403;SDS011;68858;48.642;9.142;2023-05-10T08:19:41;1.00;;;0.90;;
79403;SDS011;68858;48.642;9.142;2023-05-10T08:22:07;1.97;;;1.00;;
79403;SDS011;68858;48.642;9.142;2023-05-10T08:24:32;1.73;;;0.93;;
79403;SDS011;68858;48.642;9.142;2023-05-10T08:26:59;1.47;;;0.90;;
79403;SDS011;68858;48.642;9.142;2023-05-10T08:29:24;0.97;;;0.80;;
79403;SDS011;68858;48.642;9.142;2023-05-10T08:31:50;0.93;;;0.93;;
79403;SDS011;68858;48.642;9.142;2023-05-10T08:34:15;1.63;;;1.00;;
79403;SDS011;68858;48.642;9.142;2023-05-10T08:36:41;1.03;;;1.00;;
79403;SDS011;68858;48.642;9.142;2023-05-10T08:39:06;1.77;;;0.90;;
79403;SDS011;68858;48.642;9.142;2023-05-10T08:41:32;1.90;;;1.03;;
79403;SDS011;68858;48.642;9.142;2023-05-10T08:43:58;1.30;;;1.10;;
79403;SDS011;68858;48.642;9.142;2023-05-10T08:46:24;1.17;;;0.93;;
79403;SDS011;68858;48.642;9.142;2023-05-10T08:48:50;3.63;;;1.10;;
79403;SDS011;68858;48.642;9.142;2023-05-10T08:51:21;1.00;;;1.00;;
79403;SDS011;68858;48.642;9.142;2023-05-10T08:53:48;2.30;;;1.00;;
79403;SDS011;68858;48.642;9.142;2023-05-10T08:56:15;1.17;;;1.07;;
79403;SDS011;68858;48.642;9.142;2023-05-10T08:58:40;1.20;;;1.10;;
79403;SDS011;68858;48.642;9.142;2023-05-10T09:01:06;2.33;;;1.23;;
79403;SDS011;68858;48.642;9.142;2023-05-10T09:03:32;1.27;;;0.80;;
79403;SDS011;68858;48.642;9.142;2023-05-10T09:05:57;0.60;;;0.50;;
79403;SDS011;68858;48.642;9.142;2023-05-10T09:08:23;1.37;;;0.50;;
79403;SDS011;68858;48.642;9.142;2023-05-10T09:10:52;1.73;;;1.10;;
79403;SDS011;68858;48.642;9.142;2023-05-10T09:13:18;0.90;;;0.70;;
79403;SDS011;68858;48.642;9.142;2023-05-10T09:15:44;0.63;;;0.60;;
79403;SDS011;68858;48.642;9.142;2023-05-10T09:18:10;0.70;;;0.60;;
79403;SDS011;68858;48.642;9.142;2023-05-10T09:20:35;0.73;;;0.50;;
79403;SDS011;68858;48.642;9.142;2023-05-10T09:23:00;0.40;;;0.40;;
79403;SDS011;68858;48.642;9.142;2023-05-10T09:25:26;0.60;;;0.60;;
79403;SDS011;68858;48.642;9.142;2023-05-10T09:27:51;1.30;;;0.50;;
79403;SDS011;68858;48.642;9.142;2023-05-10T09:30:18;0.73;;;0.57;;
79403;SDS011;68858;48.642;9.142;2023-05-10T09:32:49;1.57;;;0.43;;
79403;SDS011;68858;48.642;9.142;2023-05-10T09:35:15;0.53;;;0.40;;
79403;SDS011;68858;48.642;9.142;2023-05-10T09:37:43;0.60;;;0.57;;
79403;SDS011;68858;48.642;9.142;2023-05-10T09:40:13;1.63;;;0.60;;
79403;SDS011;68858;48.642;9.142;2023-05-10T09:42:42;0.50;;;0.50;;
79403;SDS011;68858;48.642;9.142;2023-05-10T09:45:16;0.70;;;0.43;;
79403;SDS011;68858;48.642;9.142;2023-05-10T09:47:41;0.60;;;0.50;;
79403;SDS011;68858;48.642;9.142;2023-05-10T09:50:07;1.00;;;0.50;;
79403;SDS011;68858;48.642;9.142;2023-05-10T09:55:21;2.27;;;0.50;;
79403;SDS011;68858;48.642;9.142;2023-05-10T09:57:48;0.33;;;0.30;;
79403;SDS011;68858;48.642;9.142;2023-05-10T10:00:18;0.40;;;0.40;;
79403;SDS011;68858;48.642;9.142;2023-05-10T10:02:45;0.57;;;0.57;;
79403;SDS011;68858;48.642;9.142;2023-05-10T10:05:19;1.17;;;0.50;;
79403;SDS011;68858;48.642;9.142;2023-05-10T10:07:44;0.97;;;0.60;;
79403;SDS011;68858;48.642;9.142;2023-05-10T10:10:10;0.40;;;0.40;;
79403;SDS011;68858;48.642;9.142;2023-05-10T10:12:37;0.80;;;0.57;;
79403;SDS011;68858;48.642;9.142;2023-05-10T10:15:03;1.23;;;0.50;;
79403;SDS011;68858;48.642;9.142;2023-05-10T10:17:30;0.93;;;0.50;;
79403;SDS011;68858;48.642;9.142;2023-05-10T10:19:55;0.60;;;0.60;;
79403;SDS011;68858;48.642;9.142;2023-05-10T10:22:22;0.70;;;0.40;;
79403;SDS011;68858;48.642;9.142;2023-05-10T10:24:47;0.40;;;0.40;;
79403;SDS011;68858;48.642;9.142;2023-05-10T10:29:59;0.30;;;0.30;;
79403;SDS011;68858;48.642;9.142;2023-05-10T10:35:25;1.87;;;1.03;;
79403;SDS011;68858;48.642;9.142;2023-05-10T10:37:50;1.37;;;0.40;;
79403;SDS011;68858;48.642;9.142;2023-05-10T10:40:26;0.60;;;0.50;;
79403;SDS011;68858;48.642;9.142;2023-05-10T10:42:53;0.37;;;0.37;;
79403;SDS011;68858;48.642;9.142;2023-05-10T10:45:19;1.13;;;0.60;;
79403;SDS011;68858;48.642;9.142;2023-05-10T10:47:45;0.60;;;0.50;;
79403;SDS011;68858;48.642;9.142;2023-05-10T10:50:11;0.40;;;0.40;;
79403;SDS011;68858;48.642;9.142;2023-05-10T10:52:41;1.80;;;0.47;;
79403;SDS011;68858;48.642;9.142;2023-05-10T10:55:09;0.73;;;0.60;;
79403;SDS011;68858;48.642;9.142;2023-05-10T10:57:47;0.60;;;0.50;;
79403;SDS011;68858;48.642;9.142;2023-05-10T11:05:34;1.40;;;0.40;;
79403;SDS011;68858;48.642;9.142;2023-05-10T11:08:13;0.90;;;0.67;;
79403;SDS011;68858;48.642;9.142;2023-05-10T11:13:29;1.90;;;0.77;;
79403;SDS011;68858;48.642;9.142;2023-05-10T11:15:59;2.60;;;0.87;;
79403;SDS011;68858;48.642;9.142;2023-05-10T11:18:36;2.93;;;1.20;;
79403;SDS011;68858;48.642;9.142;2023-05-10T11:21:01;1.37;;;0.83;;
79403;SDS011;68858;48.642;9.142;2023-05-10T11:23:52;0.97;;;0.87;;
79403;SDS011;68858;48.642;9.142;2023-05-10T11:26:21;4.03;;;0.90;;
79403;SDS011;68858;48.642;9.142;2023-05-10T11:28:51;1.93;;;1.10;;
79403;SDS011;68858;48.642;9.142;2023-05-10T11:31:20;3.27;;;0.80;;
79403;SDS011;68858;48.642;9.142;2023-05-10T11:33:46;1.67;;;0.83;;
79403;SDS011;68858;48.642;9.142;2023-05-10T11:36:16;3.57;;;1.20;;
79403;SDS011;68858;48.642;9.142;2023-05-10T11:38:42;1.83;;;1.07;;
79403;SDS011;68858;48.642;9.142;2023-05-10T11:41:08;1.33;;;0.80;;
79403;SDS011;68858;48.642;9.142;2023-05-10T11:43:35;3.90;;;0.90;;
79403;SDS011;68858;48.642;9.142;2023-05-10T11:46:01;2.87;;;0.83;;
79403;SDS011;68858;48.642;9.142;2023-05-10T11:48:27;3.70;;;1.00;;
79403;SDS011;68858;48.642;9.142;2023-05-10T11:50:54;2.67;;;1.03;;
79403;SDS011;68858;48.642;9.142;2023-05-10T11:53:21;2.43;;;1.30;;
79403;SDS011;68858;48.642;9.142;2023-05-10T11:55:47;1.53;;;1.20;;
79403;SDS011;68858;48.642;9.142;2023-05-10T11:58:12;1.57;;;0.70;;
79403;SDS011;68858;48.642;9.142;2023-05-10T12:00:38;0.80;;;0.73;;
79403;SDS011;68858;48.642;9.142;2023-05-10T12:03:04;2.13;;;0.90;;
79403;SDS011;68858;48.642;9.142;2023-05-10T12:05:31;2.17;;;1.00;;
79403;SDS011;68858;48.642;9.142;2023-05-10T12:08:14;3.43;;;0.90;;
79403;SDS011;68858;48.642;9.142;2023-05-10T12:10:40;2.87;;;0.80;;
79403;SDS011;68858;48.642;9.142;2023-05-10T12:13:06;2.83;;;1.00;;
79403;SDS011;68858;48.642;9.142;2023-05-10T12:15:36;1.13;;;0.70;;
79403;SDS011;68858;48.642;9.142;2023-05-10T12:18:01;1.00;;;0.77;;
79403;SDS011;68858;48.642;9.142;2023-05-10T12:20:28;1.97;;;0.80;;
79403;SDS011;68858;48.642;9.142;2023-05-10T12:22:54;1.40;;;1.00;;
79403;SDS011;68858;48.642;9.142;2023-05-10T12:25:23;1.73;;;1.00;;
79403;SDS011;68858;48.642;9.142;2023-05-10T12:27:54;2.13;;;1.00;;
79403;SDS011;68858;48.642;9.142;2023-05-10T12:32:47;1.93;;;0.90;;
79403;SDS011;68858;48.642;9.142;2023-05-10T12:35:12;1.90;;;0.90;;
79403;SDS011;68858;48.642;9.142;2023-05-10T12:37:37;1.27;;;0.83;;
79403;SDS011;68858;48.642;9.142;2023-05-10T12:40:09;4.60;;;1.10;;
79403;SDS011;68858;48.642;9.142;2023-05-10T12:42:36;1.67;;;1.00;;
79403;SDS011;68858;48.642;9.142;2023-05-10T12:45:02;1.73;;;1.00;;
79403;SDS011;68858;48.642;9.142;2023-05-10T12:47:28;1.30;;;1.00;;
79403;SDS011;68858;48.642;9.142;2023-05-10T12:49:53;1.00;;;0.80;;
79403;SDS011;68858;48.642;9.142;2023-05-10T12:52:19;1.53;;;1.00;;
79403;SDS011;68858;48.642;9.142;2023-05-10T12:54:45;1.13;;;0.80;;
79403;SDS011;68858;48.642;9.142;2023-05-10T12:57:10;1.10;;;0.80;;
79403;SDS011;68858;48.642;9.142;2023-05-10T12:59:36;2.47;;;1.10;;
79403;SDS011;68858;48.642;9.142;2023-05-10T13:02:01;2.40;;;1.10;;
79403;SDS011;68858;48.642;9.142;2023-05-10T13:04:27;1.57;;;0.93;;
79403;SDS011;68858;48.642;9.142;2023-05-10T13:06:52;1.70;;;0.70;;
79403;SDS011;68858;48.642;9.142;2023-05-10T13:09:17;1.30;;;0.93;;
79403;SDS011;68858;48.642;9.142;2023-05-10T13:11:43;3.33;;;1.33;;
79403;SDS011;68858;48.642;9.142;2023-05-10T13:14:10;3.13;;;1.00;;
79403;SDS011;68858;48.642;9.142;2023-05-10T13:16:35;1.97;;;0.90;;
79403;SDS011;68858;48.642;9.142;2023-05-10T13:19:00;1.40;;;0.83;;
79403;SDS011;68858;48.642;9.142;2023-05-10T13:21:26;1.20;;;0.80;;
79403;SDS011;68858;48.642;9.142;2023-05-10T13:23:51;2.00;;;0.97;;
79403;SDS011;68858;48.642;9.142;2023-05-10T13:26:18;2.13;;;0.90;;
79403;SDS011;68858;48.642;9.142;2023-05-10T13:28:43;0.90;;;0.70;;
79403;SDS011;68858;48.642;9.142;2023-05-10T13:31:09;3.87;;;0.80;;
79403;SDS011;68858;48.642;9.142;2023-05-10T13:33:34;2.20;;;0.90;;
79403;SDS011;68858;48.642;9.142;2023-05-10T13:35:59;1.30;;;0.83;;
79403;SDS011;68858;48.642;9.142;2023-05-10T13:38:25;2.07;;;0.80;;
79403;SDS011;68858;48.642;9.142;2023-05-10T13:40:50;2.93;;;1.00;;
79403;SDS011;68858;48.642;9.142;2023-05-10T13:43:17;2.10;;;0.90;;
79403;SDS011;68858;48.642;9.142;2023-05-10T13:45:43;1.73;;;0.67;;
79403;SDS011;68858;48.642;9.142;2023-05-10T13:48:08;1.43;;;1.07;;
79403;SDS011;68858;48.642;9.142;2023-05-10T13:50:34;1.40;;;1.03;;
79403;SDS011;68858;48.642;9.142;2023-05-10T13:52:59;1.30;;;0.90;;
79403;SDS011;68858;48.642;9.142;2023-05-10T13:55:25;2.47;;;1.07;;
79403;SDS011;68858;48.642;9.142;2023-05-10T13:57:50;2.70;;;1.00;;
79403;SDS011;68858;48.642;9.142;2023-05-10T14:00:15;1.30;;;0.90;;
79403;SDS011;68858;48.642;9.142;2023-05-10T14:02:41;1.53;;;0.90;;
79403;SDS011;68858;48.642;9.142;2023-05-10T14:05:06;1.70;;;0.93;;
79403;SDS011;68858;48.642;9.142;2023-05-10T14:07:32;2.57;;;1.00;;
79403;SDS011;68858;48.642;9.142;2023-05-10T14:09:57;1.23;;;0.73;;
79403;SDS011;68858;48.642;9.142;2023-05-10T14:12:23;3.23;;;0.80;;
79403;SDS011;68858;48.642;9.142;2023-05-10T14:14:48;0.80;;;0.70;;
79403;SDS011;68858;48.642;9.142;2023-05-10T14:17:13;1.83;;;0.90;;
79403;SDS011;68858;48.642;9.142;2023-05-10T14:19:39;1.60;;;1.07;;
79403;SDS011;68858;48.642;9.142;2023-05-10T14:22:04;1.77;;;0.90;;
79403;SDS011;68858;48.642;9.142;2023-05-10T14:24:29;1.50;;;0.80;;
79403;SDS011;68858;48.642;9.142;2023-05-10T14:26:55;2.07;;;0.93;;
79403;SDS011;68858;48.642;9.142;2023-05-10T14:29:20;1.40;;;0.90;;
79403;SDS011;68858;48.642;9.142;2023-05-10T14:31:46;2.20;;;1.00;;
79403;SDS011;68858;48.642;9.142;2023-05-10T14:34:12;1.77;;;0.70;;
79403;SDS011;68858;48.642;9.142;2023-05-10T14:36:37;3.80;;;0.87;;
79403;SDS011;68858;48.642;9.142;2023-05-10T14:39:05;1.30;;;0.80;;
79403;SDS011;68858;48.642;9.142;2023-05-10T14:41:31;1.23;;;0.70;;
79403;SDS011;68858;48.642;9.142;2023-05-10T14:43:57;1.83;;;0.70;;
79403;SDS011;68858;48.642;9.142;2023-05-10T14:46:22;1.23;;;0.60;;
79403;SDS011;68858;48.642;9.142;2023-05-10T14:48:48;1.50;;;0.90;;
79403;SDS011;68858;48.642;9.142;2023-05-10T14:51:13;2.53;;;0.80;;
79403;SDS011;68858;48.642;9.142;2023-05-10T14:53:38;1.10;;;0.70;;
79403;SDS011;68858;48.642;9.142;2023-05-10T14:56:04;2.03;;;0.90;;
79403;SDS011;68858;48.642;9.142;2023-05-10T14:58:29;1.37;;;0.60;;
79403;SDS011;68858;48.642;9.142;2023-05-10T15:00:57;1.00;;;0.80;;
79403;SDS011;68858;48.642;9.142;2023-05-10T15:03:23;2.70;;;0.77;;
79403;SDS011;68858;48.642;9.142;2023-05-10T15:05:48;1.60;;;0.80;;
79403;SDS011;68858;48.642;9.142;2023-05-10T15:08:14;2.13;;;0.70;;
79403;SDS011;68858;48.642;9.142;2023-05-10T15:10:39;1.23;;;0.70;;
79403;SDS011;68858;48.642;9.142;2023-05-10T15:13:04;2.07;;;0.77;;
79403;SDS011;68858;48.642;9.142;2023-05-10T15:15:30;1.70;;;0.80;;
79403;SDS011;68858;48.642;9.142;2023-05-10T15:17:56;1.77;;;0.70;;